Estación Meteorológica Peña el Pijo (Robertgarden) [ 02/02/23 20:39:30 CET ]

Fecha Hora Presion(HPa) Temp (°C) Humedad % Rocio (°C) Viento ( m/s) Direccion Lluvia 1Hora(mm) Lluvia 24H(mm) LLuvia Total(mm)
2010-Jun-23 01:01:14 1013.900 14.4 71 9.2         120.17
2010-Jun-23 02:01:17 1013.500 13.2 75 8.8         120.17
2010-Jun-23 03:03:14 1013.300 12.7 79 9.1         120.17
2010-Jun-23 04:01:16 1013.100 12.1 79 8.6         120.17
2010-Jun-23 05:01:14 1012.700 11.9 81 8.8         120.17
2010-Jun-23 06:01:13 1012.800 11.3 81 8.2         120.17
2010-Jun-23 07:01:17 1012.800 10.5 84 7.9         120.17
2010-Jun-23 08:01:14 1013.100 13.3 83 10.4         120.17
2010-Jun-23 09:01:19 1012.900 20.1 65 13.3         120.17
2010-Jun-23 10:01:13 1012.800 25.9 48 14.0         120.17
2010-Jun-23 11:01:12 1012.400 29.6 37 13.3         120.17
2010-Jun-23 12:01:13 1012.400 31.9 26 9.8         120.17
2010-Jun-23 13:01:15 1012.400 33.5 24 9.9         120.17
2010-Jun-23 14:01:13 1012.000 33.8 25 10.8         120.17
2010-Jun-23 15:01:12 1011.600 30.8 29 10.6 2.3 ESE     120.17
2010-Jun-23 16:01:16 1011.400 32.8 27 11.2         120.17
2010-Jun-23 17:01:11 1011.300 32.3 26 10.2 3.5 NNE     120.17
2010-Jun-23 18:01:17 1010.800 32.9 25 10.1         120.17
2010-Jun-23 19:01:17 1010.700 29.6 29 9.6         120.17
2010-Jun-23 20:01:14 1011.000 27.5 35 10.6         120.17
2010-Jun-23 21:01:14 1011.400 24.4 40 10.0         120.17
2010-Jun-23 22:01:16 1011.600 21.8 43 8.6         120.17
2010-Jun-23 23:01:14 1012.300 18.4 55 9.2         120.17

Temperatura Máxima:33°    Temperatura Mínima:10°
Presión Máxima:1013.900 Hpa    Presión Mínima:1010.700 Hpa


Volver